sensor_id;sensor_type;location;lat;lon;timestamp;temperature;humidity
1994;DHT22;998;49.906;10.908;2022-07-03T00:01:33;22.30;93.10
1994;DHT22;998;49.906;10.908;2022-07-03T00:04:00;22.30;93.20
1994;DHT22;998;49.906;10.908;2022-07-03T00:06:29;22.30;93.40
1994;DHT22;998;49.906;10.908;2022-07-03T00:08:57;22.20;93.50
1994;DHT22;998;49.906;10.908;2022-07-03T00:11:25;22.20;93.70
1994;DHT22;998;49.906;10.908;2022-07-03T00:13:54;22.20;94.10
1994;DHT22;998;49.906;10.908;2022-07-03T00:16:22;21.90;94.60
1994;DHT22;998;49.906;10.908;2022-07-03T00:18:49;21.80;95.00
1994;DHT22;998;49.906;10.908;2022-07-03T00:21:19;21.80;95.10
1994;DHT22;998;49.906;10.908;2022-07-03T00:23:52;21.80;95.30
1994;DHT22;998;49.906;10.908;2022-07-03T00:26:20;21.80;95.50
1994;DHT22;998;49.906;10.908;2022-07-03T00:28:47;21.70;95.80
1994;DHT22;998;49.906;10.908;2022-07-03T00:31:20;21.70;95.90
1994;DHT22;998;49.906;10.908;2022-07-03T00:33:51;21.70;96.40
1994;DHT22;998;49.906;10.908;2022-07-03T00:36:21;21.70;96.70
1994;DHT22;998;49.906;10.908;2022-07-03T00:38:49;21.60;96.90
1994;DHT22;998;49.906;10.908;2022-07-03T00:41:27;21.70;97.20
1994;DHT22;998;49.906;10.908;2022-07-03T00:43:54;21.70;97.50
1994;DHT22;998;49.906;10.908;2022-07-03T00:46:22;21.60;97.70
1994;DHT22;998;49.906;10.908;2022-07-03T00:48:53;21.70;97.70
1994;DHT22;998;49.906;10.908;2022-07-03T00:51:22;21.60;98.30
1994;DHT22;998;49.906;10.908;2022-07-03T00:53:51;21.60;97.90
1994;DHT22;998;49.906;10.908;2022-07-03T00:56:22;21.60;98.40
1994;DHT22;998;49.906;10.908;2022-07-03T00:58:53;21.50;99.00
1994;DHT22;998;49.906;10.908;2022-07-03T01:01:22;21.40;99.30
1994;DHT22;998;49.906;10.908;2022-07-03T01:03:57;21.40;99.60
1994;DHT22;998;49.906;10.908;2022-07-03T01:06:33;21.30;99.90
1994;DHT22;998;49.906;10.908;2022-07-03T01:09:03;21.20;99.90
1994;DHT22;998;49.906;10.908;2022-07-03T01:11:37;21.30;99.90
1994;DHT22;998;49.906;10.908;2022-07-03T01:14:15;21.30;99.90
1994;DHT22;998;49.906;10.908;2022-07-03T01:16:51;21.10;99.90
1994;DHT22;998;49.906;10.908;2022-07-03T01:19:34;21.00;99.90
1994;DHT22;998;49.906;10.908;2022-07-03T01:22:13;21.00;99.90
1994;DHT22;998;49.906;10.908;2022-07-03T01:27:56;21.00;99.90
1994;DHT22;998;49.906;10.908;2022-07-03T01:30:24;21.00;99.90
1994;DHT22;998;49.906;10.908;2022-07-03T01:32:58;20.90;99.90
1994;DHT22;998;49.906;10.908;2022-07-03T01:35:31;20.80;99.90
1994;DHT22;998;49.906;10.908;2022-07-03T01:38:02;20.90;99.90
1994;DHT22;998;49.906;10.908;2022-07-03T01:40:32;20.90;99.90
1994;DHT22;998;49.906;10.908;2022-07-03T01:43:02;20.90;99.90
1994;DHT22;998;49.906;10.908;2022-07-03T01:45:31;20.90;99.90
1994;DHT22;998;49.906;10.908;2022-07-03T01:47:59;20.90;99.90
1994;DHT22;998;49.906;10.908;2022-07-03T01:50:29;20.80;99.90
1994;DHT22;998;49.906;10.908;2022-07-03T01:52:59;20.80;99.90
1994;DHT22;998;49.906;10.908;2022-07-03T01:55:30;20.80;99.90
1994;DHT22;998;49.906;10.908;2022-07-03T01:57:59;20.80;99.90
1994;DHT22;998;49.906;10.908;2022-07-03T02:00:27;20.80;99.90
1994;DHT22;998;49.906;10.908;2022-07-03T02:02:58;20.80;99.90
1994;DHT22;998;49.906;10.908;2022-07-03T02:05:41;20.70;99.90
1994;DHT22;998;49.906;10.908;2022-07-03T02:08:22;20.80;99.90
1994;DHT22;998;49.906;10.908;2022-07-03T02:11:05;20.80;99.90
1994;DHT22;998;49.906;10.908;2022-07-03T02:13:50;20.60;99.90
1994;DHT22;998;49.906;10.908;2022-07-03T02:16:20;20.60;99.90
1994;DHT22;998;49.906;10.908;2022-07-03T02:18:55;20.50;99.90
1994;DHT22;998;49.906;10.908;2022-07-03T02:21:26;20.40;99.90
1994;DHT22;998;49.906;10.908;2022-07-03T02:24:05;20.40;99.90
1994;DHT22;998;49.906;10.908;2022-07-03T02:26:33;20.40;99.90
1994;DHT22;998;49.906;10.908;2022-07-03T02:29:04;20.30;99.90
1994;DHT22;998;49.906;10.908;2022-07-03T02:31:37;20.20;99.90
1994;DHT22;998;49.906;10.908;2022-07-03T02:34:07;20.20;99.90
1994;DHT22;998;49.906;10.908;2022-07-03T02:36:35;20.30;99.90
1994;DHT22;998;49.906;10.908;2022-07-03T02:39:02;20.30;99.90
1994;DHT22;998;49.906;10.908;2022-07-03T02:41:39;20.10;99.90
1994;DHT22;998;49.906;10.908;2022-07-03T02:44:20;20.10;99.90
1994;DHT22;998;49.906;10.908;2022-07-03T02:46:54;20.00;99.90
1994;DHT22;998;49.906;10.908;2022-07-03T02:49:50;20.00;99.90
1994;DHT22;998;49.906;10.908;2022-07-03T02:52:28;20.00;99.90
1994;DHT22;998;49.906;10.908;2022-07-03T02:55:01;20.00;99.90
1994;DHT22;998;49.906;10.908;2022-07-03T02:57:37;20.00;99.90
1994;DHT22;998;49.906;10.908;2022-07-03T03:00:07;19.90;99.90
1994;DHT22;998;49.906;10.908;2022-07-03T03:02:54;19.90;99.90
1994;DHT22;998;49.906;10.908;2022-07-03T03:05:27;19.80;99.90
1994;DHT22;998;49.906;10.908;2022-07-03T03:08:16;19.70;99.90
1994;DHT22;998;49.906;10.908;2022-07-03T03:10:45;19.70;99.90
1994;DHT22;998;49.906;10.908;2022-07-03T03:13:14;19.60;99.90
1994;DHT22;998;49.906;10.908;2022-07-03T03:15:50;19.70;99.90
1994;DHT22;998;49.906;10.908;2022-07-03T03:18:22;19.60;99.90
1994;DHT22;998;49.906;10.908;2022-07-03T03:20:58;19.70;99.90
1994;DHT22;998;49.906;10.908;2022-07-03T03:23:34;19.70;99.90
1994;DHT22;998;49.906;10.908;2022-07-03T03:26:04;19.70;99.90
1994;DHT22;998;49.906;10.908;2022-07-03T03:28:31;19.70;99.90
1994;DHT22;998;49.906;10.908;2022-07-03T03:30:59;19.70;99.90
1994;DHT22;998;49.906;10.908;2022-07-03T03:33:26;19.70;99.90
1994;DHT22;998;49.906;10.908;2022-07-03T03:35:53;19.70;99.90
1994;DHT22;998;49.906;10.908;2022-07-03T03:38:20;19.60;99.90
1994;DHT22;998;49.906;10.908;2022-07-03T03:40:50;19.50;99.90
1994;DHT22;998;49.906;10.908;2022-07-03T03:43:17;19.50;99.90
1994;DHT22;998;49.906;10.908;2022-07-03T03:45:44;19.50;99.90
1994;DHT22;998;49.906;10.908;2022-07-03T03:48:12;19.50;99.90
1994;DHT22;998;49.906;10.908;2022-07-03T03:50:39;19.50;99.90
1994;DHT22;998;49.906;10.908;2022-07-03T03:53:08;19.50;99.90
1994;DHT22;998;49.906;10.908;2022-07-03T03:55:35;19.50;99.90
1994;DHT22;998;49.906;10.908;2022-07-03T03:58:02;19.50;99.90
1994;DHT22;998;49.906;10.908;2022-07-03T04:00:30;19.50;99.90
1994;DHT22;998;49.906;10.908;2022-07-03T04:02:59;19.40;99.90
1994;DHT22;998;49.906;10.908;2022-07-03T04:05:28;19.40;99.90
1994;DHT22;998;49.906;10.908;2022-07-03T04:07:56;19.40;99.90
1994;DHT22;998;49.906;10.908;2022-07-03T04:10:23;19.50;99.90
1994;DHT22;998;49.906;10.908;2022-07-03T04:12:50;19.40;99.90
1994;DHT22;998;49.906;10.908;2022-07-03T04:15:17;19.40;99.90
1994;DHT22;998;49.906;10.908;2022-07-03T04:17:44;19.30;99.90
1994;DHT22;998;49.906;10.908;2022-07-03T04:20:11;19.30;99.90
1994;DHT22;998;49.906;10.908;2022-07-03T04:22:40;19.40;99.90
1994;DHT22;998;49.906;10.908;2022-07-03T04:25:07;19.30;99.90
1994;DHT22;998;49.906;10.908;2022-07-03T04:27:34;19.40;99.90
1994;DHT22;998;49.906;10.908;2022-07-03T04:30:01;19.40;99.90
1994;DHT22;998;49.906;10.908;2022-07-03T04:32:28;19.40;99.90
1994;DHT22;998;49.906;10.908;2022-07-03T04:34:55;19.40;99.90
1994;DHT22;998;49.906;10.908;2022-07-03T04:37:21;19.40;99.90
1994;DHT22;998;49.906;10.908;2022-07-03T04:39:50;19.30;99.90
1994;DHT22;998;49.906;10.908;2022-07-03T04:42:16;19.40;99.90
1994;DHT22;998;49.906;10.908;2022-07-03T04:44:43;19.40;99.90
1994;DHT22;998;49.906;10.908;2022-07-03T04:47:13;19.50;99.90
1994;DHT22;998;49.906;10.908;2022-07-03T04:49:40;19.40;99.90
1994;DHT22;998;49.906;10.908;2022-07-03T04:52:08;19.40;99.90
1994;DHT22;998;49.906;10.908;2022-07-03T04:54:35;19.40;99.90
1994;DHT22;998;49.906;10.908;2022-07-03T04:57:04;19.20;99.90
1994;DHT22;998;49.906;10.908;2022-07-03T04:59:32;19.30;99.90
1994;DHT22;998;49.906;10.908;2022-07-03T05:01:59;19.50;99.90
1994;DHT22;998;49.906;10.908;2022-07-03T05:04:25;19.60;99.90
1994;DHT22;998;49.906;10.908;2022-07-03T05:06:52;19.60;99.90
1994;DHT22;998;49.906;10.908;2022-07-03T05:09:19;19.60;99.90
1994;DHT22;998;49.906;10.908;2022-07-03T05:11:46;19.60;99.90
1994;DHT22;998;49.906;10.908;2022-07-03T05:14:14;19.30;99.90
1994;DHT22;998;49.906;10.908;2022-07-03T05:16:41;19.10;99.90
1994;DHT22;998;49.906;10.908;2022-07-03T05:19:08;19.20;99.90
1994;DHT22;998;49.906;10.908;2022-07-03T05:21:35;19.40;99.90
1994;DHT22;998;49.906;10.908;2022-07-03T05:24:02;19.20;99.90
1994;DHT22;998;49.906;10.908;2022-07-03T05:26:29;19.20;99.90
1994;DHT22;998;49.906;10.908;2022-07-03T05:28:56;19.20;99.90
1994;DHT22;998;49.906;10.908;2022-07-03T05:31:24;19.40;99.90
1994;DHT22;998;49.906;10.908;2022-07-03T05:33:51;19.50;99.90
1994;DHT22;998;49.906;10.908;2022-07-03T05:36:17;19.60;99.90
1994;DHT22;998;49.906;10.908;2022-07-03T05:38:44;19.60;99.90
1994;DHT22;998;49.906;10.908;2022-07-03T05:41:29;19.50;99.90
1994;DHT22;998;49.906;10.908;2022-07-03T05:43:55;19.50;99.90
1994;DHT22;998;49.906;10.908;2022-07-03T05:46:24;19.70;99.90
1994;DHT22;998;49.906;10.908;2022-07-03T05:48:51;19.80;99.90
1994;DHT22;998;49.906;10.908;2022-07-03T05:51:18;19.60;99.90
1994;DHT22;998;49.906;10.908;2022-07-03T05:53:45;19.80;99.90
1994;DHT22;998;49.906;10.908;2022-07-03T05:56:12;20.00;99.90
1994;DHT22;998;49.906;10.908;2022-07-03T05:58:38;20.00;99.90
1994;DHT22;998;49.906;10.908;2022-07-03T06:01:06;19.90;99.90
1994;DHT22;998;49.906;10.908;2022-07-03T06:03:35;19.70;99.90
1994;DHT22;998;49.906;10.908;2022-07-03T06:06:01;19.60;99.90
1994;DHT22;998;49.906;10.908;2022-07-03T06:08:28;19.50;99.90
1994;DHT22;998;49.906;10.908;2022-07-03T06:10:55;19.50;99.90
1994;DHT22;998;49.906;10.908;2022-07-03T06:13:22;19.50;99.90
1994;DHT22;998;49.906;10.908;2022-07-03T06:15:49;19.50;99.90
1994;DHT22;998;49.906;10.908;2022-07-03T06:18:16;19.50;99.90
1994;DHT22;998;49.906;10.908;2022-07-03T06:20:44;19.50;99.90
1994;DHT22;998;49.906;10.908;2022-07-03T06:23:11;19.50;99.90
1994;DHT22;998;49.906;10.908;2022-07-03T06:25:37;19.50;99.90
1994;DHT22;998;49.906;10.908;2022-07-03T06:28:04;19.50;99.90
1994;DHT22;998;49.906;10.908;2022-07-03T06:30:31;19.60;99.90
1994;DHT22;998;49.906;10.908;2022-07-03T06:32:58;19.60;99.90
1994;DHT22;998;49.906;10.908;2022-07-03T06:35:25;19.70;99.90
1994;DHT22;998;49.906;10.908;2022-07-03T06:37:53;19.60;99.90
1994;DHT22;998;49.906;10.908;2022-07-03T06:40:20;19.70;99.90
1994;DHT22;998;49.906;10.908;2022-07-03T06:42:47;19.90;99.90
1994;DHT22;998;49.906;10.908;2022-07-03T06:45:13;19.90;99.90
1994;DHT22;998;49.906;10.908;2022-07-03T06:47:40;19.90;99.90
1994;DHT22;998;49.906;10.908;2022-07-03T06:50:08;20.00;99.90
1994;DHT22;998;49.906;10.908;2022-07-03T06:52:34;20.10;99.90
1994;DHT22;998;49.906;10.908;2022-07-03T06:55:03;20.20;99.90
1994;DHT22;998;49.906;10.908;2022-07-03T06:57:30;20.30;99.90
1994;DHT22;998;49.906;10.908;2022-07-03T06:59:57;20.40;99.90
1994;DHT22;998;49.906;10.908;2022-07-03T07:02:24;20.40;99.90
1994;DHT22;998;49.906;10.908;2022-07-03T07:04:51;20.50;99.90
1994;DHT22;998;49.906;10.908;2022-07-03T07:07:18;20.50;99.90
1994;DHT22;998;49.906;10.908;2022-07-03T07:09:44;20.50;99.90
1994;DHT22;998;49.906;10.908;2022-07-03T07:12:13;20.60;99.90
1994;DHT22;998;49.906;10.908;2022-07-03T07:14:39;20.70;99.90
1994;DHT22;998;49.906;10.908;2022-07-03T07:17:06;20.70;99.90
1994;DHT22;998;49.906;10.908;2022-07-03T07:19:33;20.80;99.90
1994;DHT22;998;49.906;10.908;2022-07-03T07:22:00;20.90;99.90
1994;DHT22;998;49.906;10.908;2022-07-03T07:24:27;21.00;99.90
1994;DHT22;998;49.906;10.908;2022-07-03T07:26:54;21.10;99.90
1994;DHT22;998;49.906;10.908;2022-07-03T07:29:23;21.10;99.90
1994;DHT22;998;49.906;10.908;2022-07-03T07:31:49;21.10;99.90
1994;DHT22;998;49.906;10.908;2022-07-03T07:34:16;21.10;99.90
1994;DHT22;998;49.906;10.908;2022-07-03T07:36:43;21.20;99.90
1994;DHT22;998;49.906;10.908;2022-07-03T07:39:10;21.20;99.90
1994;DHT22;998;49.906;10.908;2022-07-03T07:41:37;21.30;99.90
1994;DHT22;998;49.906;10.908;2022-07-03T07:44:04;21.30;99.90
1994;DHT22;998;49.906;10.908;2022-07-03T07:46:33;21.40;99.90
1994;DHT22;998;49.906;10.908;2022-07-03T07:48:59;21.40;99.90
1994;DHT22;998;49.906;10.908;2022-07-03T07:51:26;21.50;99.90
1994;DHT22;998;49.906;10.908;2022-07-03T07:53:53;21.50;99.90
1994;DHT22;998;49.906;10.908;2022-07-03T07:56:23;21.60;99.90
1994;DHT22;998;49.906;10.908;2022-07-03T07:58:49;21.60;99.90
1994;DHT22;998;49.906;10.908;2022-07-03T08:01:17;21.60;99.90
1994;DHT22;998;49.906;10.908;2022-07-03T08:04:14;21.60;99.90
1994;DHT22;998;49.906;10.908;2022-07-03T08:06:58;21.60;99.90
1994;DHT22;998;49.906;10.908;2022-07-03T08:09:25;21.70;99.90
1994;DHT22;998;49.906;10.908;2022-07-03T08:11:52;21.80;99.90
1994;DHT22;998;49.906;10.908;2022-07-03T08:14:18;21.80;99.90
1994;DHT22;998;49.906;10.908;2022-07-03T08:16:45;21.90;99.90
1994;DHT22;998;49.906;10.908;2022-07-03T08:19:14;22.00;99.90
1994;DHT22;998;49.906;10.908;2022-07-03T08:21:41;22.00;99.90
1994;DHT22;998;49.906;10.908;2022-07-03T08:24:08;22.00;99.90
1994;DHT22;998;49.906;10.908;2022-07-03T08:26:36;22.10;99.90
1994;DHT22;998;49.906;10.908;2022-07-03T08:29:03;22.10;99.90
1994;DHT22;998;49.906;10.908;2022-07-03T08:31:30;22.10;99.90
1994;DHT22;998;49.906;10.908;2022-07-03T08:33:57;22.10;99.90
1994;DHT22;998;49.906;10.908;2022-07-03T08:36:25;22.30;99.90
1994;DHT22;998;49.906;10.908;2022-07-03T08:38:52;22.40;99.90
1994;DHT22;998;49.906;10.908;2022-07-03T08:41:19;22.40;99.90
1994;DHT22;998;49.906;10.908;2022-07-03T08:43:47;22.40;99.90
1994;DHT22;998;49.906;10.908;2022-07-03T08:46:16;22.50;99.90
1994;DHT22;998;49.906;10.908;2022-07-03T08:48:44;22.50;99.90
1994;DHT22;998;49.906;10.908;2022-07-03T08:51:13;22.60;99.90
1994;DHT22;998;49.906;10.908;2022-07-03T08:53:44;22.70;99.90
1994;DHT22;998;49.906;10.908;2022-07-03T08:56:11;22.80;99.90
1994;DHT22;998;49.906;10.908;2022-07-03T08:58:38;22.70;99.90
1994;DHT22;998;49.906;10.908;2022-07-03T09:01:06;22.70;99.90
1994;DHT22;998;49.906;10.908;2022-07-03T09:03:35;22.80;99.90
1994;DHT22;998;49.906;10.908;2022-07-03T09:06:02;22.90;99.90
1994;DHT22;998;49.906;10.908;2022-07-03T09:08:30;23.20;99.90
1994;DHT22;998;49.906;10.908;2022-07-03T09:10:59;23.20;99.90
1994;DHT22;998;49.906;10.908;2022-07-03T09:13:27;23.10;99.90
1994;DHT22;998;49.906;10.908;2022-07-03T09:15:54;23.20;99.90
1994;DHT22;998;49.906;10.908;2022-07-03T09:18:36;23.30;99.90
1994;DHT22;998;49.906;10.908;2022-07-03T09:21:04;23.40;99.90
1994;DHT22;998;49.906;10.908;2022-07-03T09:23:35;23.40;99.90
1994;DHT22;998;49.906;10.908;2022-07-03T09:26:05;23.50;99.90
1994;DHT22;998;49.906;10.908;2022-07-03T09:28:44;23.40;99.90
1994;DHT22;998;49.906;10.908;2022-07-03T09:31:13;23.30;99.90
1994;DHT22;998;49.906;10.908;2022-07-03T09:33:54;23.30;99.90
1994;DHT22;998;49.906;10.908;2022-07-03T09:36:23;23.40;99.90
1994;DHT22;998;49.906;10.908;2022-07-03T09:39:12;23.30;99.90
1994;DHT22;998;49.906;10.908;2022-07-03T09:41:52;23.50;99.90
1994;DHT22;998;49.906;10.908;2022-07-03T09:44:29;23.70;99.90
1994;DHT22;998;49.906;10.908;2022-07-03T09:47:06;23.80;99.90
1994;DHT22;998;49.906;10.908;2022-07-03T09:49:44;23.80;99.90
1994;DHT22;998;49.906;10.908;2022-07-03T09:52:29;23.80;99.90
1994;DHT22;998;49.906;10.908;2022-07-03T09:54:57;23.80;99.90
1994;DHT22;998;49.906;10.908;2022-07-03T09:57:28;24.00;99.90
1994;DHT22;998;49.906;10.908;2022-07-03T10:00:13;24.20;99.90
1994;DHT22;998;49.906;10.908;2022-07-03T10:02:57;24.20;99.90
1994;DHT22;998;49.906;10.908;2022-07-03T10:05:28;24.10;99.90
1994;DHT22;998;49.906;10.908;2022-07-03T10:07:57;24.40;99.90
1994;DHT22;998;49.906;10.908;2022-07-03T10:10:25;24.50;99.90
1994;DHT22;998;49.906;10.908;2022-07-03T10:12:55;24.50;99.90
1994;DHT22;998;49.906;10.908;2022-07-03T10:15:22;24.50;99.70
1994;DHT22;998;49.906;10.908;2022-07-03T10:17:51;24.60;99.10
1994;DHT22;998;49.906;10.908;2022-07-03T10:20:24;24.50;99.30
1994;DHT22;998;49.906;10.908;2022-07-03T10:22:51;24.50;99.70
1994;DHT22;998;49.906;10.908;2022-07-03T10:25:19;24.60;99.30
1994;DHT22;998;49.906;10.908;2022-07-03T10:27:46;24.80;98.10
1994;DHT22;998;49.906;10.908;2022-07-03T10:30:17;24.90;98.20
1994;DHT22;998;49.906;10.908;2022-07-03T10:32:45;25.10;98.20
1994;DHT22;998;49.906;10.908;2022-07-03T10:35:14;25.00;98.40
1994;DHT22;998;49.906;10.908;2022-07-03T10:37:50;25.00;97.10
1994;DHT22;998;49.906;10.908;2022-07-03T10:40:27;25.30;95.20
1994;DHT22;998;49.906;10.908;2022-07-03T10:43:21;25.40;94.00
1994;DHT22;998;49.906;10.908;2022-07-03T10:46:10;25.30;94.70
1994;DHT22;998;49.906;10.908;2022-07-03T10:48:58;25.30;94.30
1994;DHT22;998;49.906;10.908;2022-07-03T10:51:26;25.30;94.80
1994;DHT22;998;49.906;10.908;2022-07-03T10:54:13;25.30;93.40
1994;DHT22;998;49.906;10.908;2022-07-03T10:57:09;25.10;92.50
1994;DHT22;998;49.906;10.908;2022-07-03T10:59:55;25.10;92.10
1994;DHT22;998;49.906;10.908;2022-07-03T11:02:26;25.10;91.40
1994;DHT22;998;49.906;10.908;2022-07-03T11:05:10;25.30;91.00
1994;DHT22;998;49.906;10.908;2022-07-03T11:07:43;25.70;90.40
1994;DHT22;998;49.906;10.908;2022-07-03T11:10:30;26.00;90.10
1994;DHT22;998;49.906;10.908;2022-07-03T11:12:57;25.80;90.80
1994;DHT22;998;49.906;10.908;2022-07-03T11:15:28;26.10;89.40
1994;DHT22;998;49.906;10.908;2022-07-03T11:18:26;26.20;86.50
1994;DHT22;998;49.906;10.908;2022-07-03T11:21:11;26.10;86.60
1994;DHT22;998;49.906;10.908;2022-07-03T11:26:29;26.30;80.20
1994;DHT22;998;49.906;10.908;2022-07-03T11:28:57;26.20;78.90
1994;DHT22;998;49.906;10.908;2022-07-03T11:31:24;26.20;78.00
1994;DHT22;998;49.906;10.908;2022-07-03T11:33:58;26.10;78.20
1994;DHT22;998;49.906;10.908;2022-07-03T11:36:28;26.30;77.40
1994;DHT22;998;49.906;10.908;2022-07-03T11:39:09;26.40;77.20
1994;DHT22;998;49.906;10.908;2022-07-03T11:41:44;26.50;75.50
1994;DHT22;998;49.906;10.908;2022-07-03T11:44:19;26.50;72.90
1994;DHT22;998;49.906;10.908;2022-07-03T11:46:48;26.60;71.90
1994;DHT22;998;49.906;10.908;2022-07-03T11:49:19;26.70;69.70
1994;DHT22;998;49.906;10.908;2022-07-03T11:51:58;26.80;70.60
1994;DHT22;998;49.906;10.908;2022-07-03T11:54:26;27.20;70.50
1994;DHT22;998;49.906;10.908;2022-07-03T11:56:53;27.10;69.40
1994;DHT22;998;49.906;10.908;2022-07-03T11:59:20;27.20;66.90
1994;DHT22;998;49.906;10.908;2022-07-03T12:01:46;27.20;68.40
1994;DHT22;998;49.906;10.908;2022-07-03T12:04:15;27.20;66.50
1994;DHT22;998;49.906;10.908;2022-07-03T12:06:44;27.20;67.20
1994;DHT22;998;49.906;10.908;2022-07-03T12:09:16;27.30;65.60
1994;DHT22;998;49.906;10.908;2022-07-03T12:11:52;27.40;67.00
1994;DHT22;998;49.906;10.908;2022-07-03T12:14:33;27.40;64.90
1994;DHT22;998;49.906;10.908;2022-07-03T12:17:00;27.80;64.70
1994;DHT22;998;49.906;10.908;2022-07-03T12:19:27;27.90;64.20
1994;DHT22;998;49.906;10.908;2022-07-03T12:21:55;28.20;63.20
1994;DHT22;998;49.906;10.908;2022-07-03T12:24:22;28.50;62.80
1994;DHT22;998;49.906;10.908;2022-07-03T12:26:50;28.60;60.50
1994;DHT22;998;49.906;10.908;2022-07-03T12:29:17;28.60;61.20
1994;DHT22;998;49.906;10.908;2022-07-03T12:31:45;28.70;60.20
1994;DHT22;998;49.906;10.908;2022-07-03T12:34:14;28.80;60.30
1994;DHT22;998;49.906;10.908;2022-07-03T12:36:55;29.00;60.70
1994;DHT22;998;49.906;10.908;2022-07-03T12:39:22;29.20;59.80
1994;DHT22;998;49.906;10.908;2022-07-03T12:41:49;29.60;59.80
1994;DHT22;998;49.906;10.908;2022-07-03T12:44:16;30.00;58.80
1994;DHT22;998;49.906;10.908;2022-07-03T12:46:46;30.10;57.80
1994;DHT22;998;49.906;10.908;2022-07-03T12:49:13;30.50;56.80
1994;DHT22;998;49.906;10.908;2022-07-03T12:51:42;30.70;55.40
1994;DHT22;998;49.906;10.908;2022-07-03T12:54:12;30.50;55.80
1994;DHT22;998;49.906;10.908;2022-07-03T12:56:40;30.40;56.30
1994;DHT22;998;49.906;10.908;2022-07-03T12:59:07;30.60;55.70
1994;DHT22;998;49.906;10.908;2022-07-03T13:02:00;30.90;56.00
1994;DHT22;998;49.906;10.908;2022-07-03T13:04:32;31.20;55.50
1994;DHT22;998;49.906;10.908;2022-07-03T13:07:00;31.60;55.20
1994;DHT22;998;49.906;10.908;2022-07-03T13:09:29;31.80;54.50
1994;DHT22;998;49.906;10.908;2022-07-03T13:11:56;32.10;53.40
1994;DHT22;998;49.906;10.908;2022-07-03T13:14:26;32.10;54.20
1994;DHT22;998;49.906;10.908;2022-07-03T13:16:54;32.20;53.30
1994;DHT22;998;49.906;10.908;2022-07-03T13:19:22;31.90;53.20
1994;DHT22;998;49.906;10.908;2022-07-03T13:21:52;31.70;51.40
1994;DHT22;998;49.906;10.908;2022-07-03T13:24:19;31.90;52.50
1994;DHT22;998;49.906;10.908;2022-07-03T13:26:49;32.00;51.90
1994;DHT22;998;49.906;10.908;2022-07-03T13:29:16;31.80;50.80
1994;DHT22;998;49.906;10.908;2022-07-03T13:31:43;31.70;51.30
1994;DHT22;998;49.906;10.908;2022-07-03T13:34:10;32.20;51.00
1994;DHT22;998;49.906;10.908;2022-07-03T13:36:37;32.30;50.80
1994;DHT22;998;49.906;10.908;2022-07-03T13:39:04;32.70;49.80
1994;DHT22;998;49.906;10.908;2022-07-03T13:41:33;33.00;48.00
1994;DHT22;998;49.906;10.908;2022-07-03T13:44:02;33.00;48.00
1994;DHT22;998;49.906;10.908;2022-07-03T13:46:29;32.60;48.30
1994;DHT22;998;49.906;10.908;2022-07-03T13:48:56;32.50;48.70
1994;DHT22;998;49.906;10.908;2022-07-03T13:51:23;32.80;48.80
1994;DHT22;998;49.906;10.908;2022-07-03T13:53:49;33.00;48.50
1994;DHT22;998;49.906;10.908;2022-07-03T13:56:18;32.70;48.40
1994;DHT22;998;49.906;10.908;2022-07-03T13:58:45;33.20;47.80
1994;DHT22;998;49.906;10.908;2022-07-03T14:01:14;33.40;47.60
1994;DHT22;998;49.906;10.908;2022-07-03T14:03:41;33.10;47.80
1994;DHT22;998;49.906;10.908;2022-07-03T14:06:08;33.40;46.80
1994;DHT22;998;49.906;10.908;2022-07-03T14:08:35;33.40;46.10
1994;DHT22;998;49.906;10.908;2022-07-03T14:11:02;33.00;46.90
1994;DHT22;998;49.906;10.908;2022-07-03T14:13:29;32.90;47.20
1994;DHT22;998;49.906;10.908;2022-07-03T14:15:56;33.20;46.20
1994;DHT22;998;49.906;10.908;2022-07-03T14:18:24;33.20;45.90
1994;DHT22;998;49.906;10.908;2022-07-03T14:20:51;33.10;46.40
1994;DHT22;998;49.906;10.908;2022-07-03T14:23:17;33.20;46.30
1994;DHT22;998;49.906;10.908;2022-07-03T14:25:44;33.20;46.20
1994;DHT22;998;49.906;10.908;2022-07-03T14:28:11;32.80;46.80
1994;DHT22;998;49.906;10.908;2022-07-03T14:30:55;32.90;46.70
1994;DHT22;998;49.906;10.908;2022-07-03T14:33:41;32.60;46.70
1994;DHT22;998;49.906;10.908;2022-07-03T14:36:08;32.30;47.20
1994;DHT22;998;49.906;10.908;2022-07-03T14:38:35;32.20;47.30
1994;DHT22;998;49.906;10.908;2022-07-03T14:41:02;32.40;47.70
1994;DHT22;998;49.906;10.908;2022-07-03T14:43:28;32.30;47.90
1994;DHT22;998;49.906;10.908;2022-07-03T14:45:55;32.60;47.90
1994;DHT22;998;49.906;10.908;2022-07-03T14:48:22;32.70;47.30
1994;DHT22;998;49.906;10.908;2022-07-03T14:50:51;32.80;46.90
1994;DHT22;998;49.906;10.908;2022-07-03T14:53:18;32.80;47.10
1994;DHT22;998;49.906;10.908;2022-07-03T14:55:46;32.80;47.00
1994;DHT22;998;49.906;10.908;2022-07-03T14:58:17;32.60;47.40
1994;DHT22;998;49.906;10.908;2022-07-03T15:00:49;32.50;46.00
1994;DHT22;998;49.906;10.908;2022-07-03T15:03:19;32.40;46.60
1994;DHT22;998;49.906;10.908;2022-07-03T15:05:47;32.50;46.90
1994;DHT22;998;49.906;10.908;2022-07-03T15:08:34;32.20;46.60
1994;DHT22;998;49.906;10.908;2022-07-03T15:11:14;31.90;47.20
1994;DHT22;998;49.906;10.908;2022-07-03T15:14:03;31.90;47.40
1994;DHT22;998;49.906;10.908;2022-07-03T15:16:32;31.90;47.80
1994;DHT22;998;49.906;10.908;2022-07-03T15:18:59;32.10;47.90
1994;DHT22;998;49.906;10.908;2022-07-03T15:21:29;32.40;47.30
1994;DHT22;998;49.906;10.908;2022-07-03T15:24:00;32.30;48.10
1994;DHT22;998;49.906;10.908;2022-07-03T15:29:04;32.20;48.00
1994;DHT22;998;49.906;10.908;2022-07-03T15:31:34;32.30;47.40
1994;DHT22;998;49.906;10.908;2022-07-03T15:34:04;32.30;47.50
1994;DHT22;998;49.906;10.908;2022-07-03T15:36:44;32.20;47.50
1994;DHT22;998;49.906;10.908;2022-07-03T15:39:18;32.10;48.00
1994;DHT22;998;49.906;10.908;2022-07-03T15:41:58;32.30;47.70
1994;DHT22;998;49.906;10.908;2022-07-03T15:44:31;32.40;47.50
1994;DHT22;998;49.906;10.908;2022-07-03T15:47:11;32.30;46.50
1994;DHT22;998;49.906;10.908;2022-07-03T15:49:42;32.30;47.00
1994;DHT22;998;49.906;10.908;2022-07-03T15:52:17;32.10;47.10
1994;DHT22;998;49.906;10.908;2022-07-03T15:54:52;32.10;47.10
1994;DHT22;998;49.906;10.908;2022-07-03T15:57:31;32.20;47.20
1994;DHT22;998;49.906;10.908;2022-07-03T16:00:00;32.20;47.20
1994;DHT22;998;49.906;10.908;2022-07-03T16:02:36;32.10;47.50
1994;DHT22;998;49.906;10.908;2022-07-03T16:05:09;32.10;48.20
1994;DHT22;998;49.906;10.908;2022-07-03T16:07:38;32.10;47.70
1994;DHT22;998;49.906;10.908;2022-07-03T16:10:09;32.00;47.90
1994;DHT22;998;49.906;10.908;2022-07-03T16:12:36;32.10;47.10
1994;DHT22;998;49.906;10.908;2022-07-03T16:15:05;32.20;47.70
1994;DHT22;998;49.906;10.908;2022-07-03T16:17:32;32.20;47.20
1994;DHT22;998;49.906;10.908;2022-07-03T16:20:01;32.20;47.10
1994;DHT22;998;49.906;10.908;2022-07-03T16:22:29;32.20;47.20
1994;DHT22;998;49.906;10.908;2022-07-03T16:24:56;32.20;47.70
1994;DHT22;998;49.906;10.908;2022-07-03T16:27:25;32.10;47.70
1994;DHT22;998;49.906;10.908;2022-07-03T16:29:54;32.20;48.00
1994;DHT22;998;49.906;10.908;2022-07-03T16:32:26;32.20;47.90